createdAt,value
2022-10-05T00:01:28.686Z,5.93
2022-10-05T00:04:01.034Z,5.93
2022-10-05T00:06:29.460Z,6.55
2022-10-05T00:08:56.543Z,6.25
2022-10-05T00:11:23.027Z,5.63
2022-10-05T00:13:49.645Z,6.40
2022-10-05T00:16:19.102Z,6.25
2022-10-05T00:18:49.322Z,5.85
2022-10-05T00:21:18.830Z,5.68
2022-10-05T00:23:45.440Z,5.57
2022-10-05T00:26:16.755Z,5.25
2022-10-05T00:28:43.252Z,4.72
2022-10-05T00:31:21.276Z,5.53
2022-10-05T00:33:48.240Z,5.03
2022-10-05T00:36:15.557Z,5.90
2022-10-05T00:38:42.830Z,5.50
2022-10-05T00:41:11.598Z,5.40
2022-10-05T00:43:37.988Z,5.55
2022-10-05T00:46:14.356Z,5.38
2022-10-05T00:49:08.263Z,5.25
2022-10-05T00:51:37.082Z,5.65
2022-10-05T00:54:07.062Z,5.03
2022-10-05T00:56:47.457Z,5.65
2022-10-05T00:59:40.422Z,5.25
2022-10-05T01:02:12.975Z,5.28
2022-10-05T01:04:47.173Z,4.40
2022-10-05T01:07:37.757Z,5.57
2022-10-05T01:10:15.828Z,5.50
2022-10-05T01:12:49.035Z,5.53
2022-10-05T01:15:29.370Z,4.97
2022-10-05T01:18:08.807Z,5.28
2022-10-05T01:20:57.055Z,5.15
2022-10-05T01:24:06.207Z,5.22
2022-10-05T01:26:53.009Z,5.30
2022-10-05T01:31:59.309Z,5.13
2022-10-05T01:34:44.709Z,4.90
2022-10-05T01:37:23.428Z,5.78
2022-10-05T01:40:08.018Z,5.38
2022-10-05T01:42:40.737Z,5.13
2022-10-05T01:45:31.600Z,5.35
2022-10-05T01:48:14.884Z,5.38
2022-10-05T01:50:51.316Z,5.22
2022-10-05T01:53:38.019Z,5.40
2022-10-05T01:56:06.575Z,4.45
2022-10-05T01:58:59.278Z,4.90
2022-10-05T02:01:57.262Z,5.38
2022-10-05T02:05:00.325Z,4.88
2022-10-05T02:07:24.421Z,4.80
2022-10-05T02:09:56.342Z,5.47
2022-10-05T02:12:25.509Z,5.50
2022-10-05T02:14:57.368Z,5.63
2022-10-05T02:17:27.442Z,5.78
2022-10-05T02:20:04.550Z,5.25
2022-10-05T02:22:37.549Z,5.57
2022-10-05T02:25:10.829Z,5.75
2022-10-05T02:27:44.059Z,5.53
2022-10-05T02:30:16.249Z,5.80
2022-10-05T02:33:06.465Z,6.20
2022-10-05T02:35:33.052Z,6.10
2022-10-05T02:38:14.716Z,6.28
2022-10-05T02:41:07.693Z,5.97
2022-10-05T02:46:18.541Z,5.53
2022-10-05T02:49:07.059Z,4.90
2022-10-05T02:51:51.323Z,5.55
2022-10-05T02:54:24.176Z,5.63
2022-10-05T02:57:09.509Z,5.30
2022-10-05T02:59:47.439Z,5.38
2022-10-05T03:02:20.391Z,5.57
2022-10-05T03:05:00.577Z,5.68
2022-10-05T03:07:35.200Z,5.15
2022-10-05T03:10:10.468Z,5.13
2022-10-05T03:12:48.874Z,4.70
2022-10-05T03:15:48.813Z,5.10
2022-10-05T03:18:48.502Z,4.85
2022-10-05T03:21:33.767Z,5.07
2022-10-05T03:24:17.434Z,4.97
2022-10-05T03:27:06.000Z,5.25
2022-10-05T03:29:41.098Z,4.82
2022-10-05T03:32:26.535Z,5.03
2022-10-05T03:35:31.148Z,4.72
2022-10-05T03:38:16.174Z,4.63
2022-10-05T03:41:13.245Z,5.10
2022-10-05T03:44:00.208Z,4.72
2022-10-05T03:49:24.812Z,5.30
2022-10-05T03:52:15.763Z,4.90
2022-10-05T03:54:45.890Z,5.10
2022-10-05T03:57:23.990Z,5.00
2022-10-05T03:59:59.322Z,4.50
2022-10-05T04:02:31.877Z,4.97
2022-10-05T04:05:03.726Z,5.18
2022-10-05T04:07:46.822Z,5.30
2022-10-05T04:10:25.413Z,5.15
2022-10-05T04:13:01.640Z,5.18
2022-10-05T04:15:35.285Z,5.70
2022-10-05T04:18:40.656Z,5.88
2022-10-05T04:21:23.747Z,5.18
2022-10-05T04:24:00.477Z,5.15
2022-10-05T04:26:50.983Z,5.15
2022-10-05T04:29:44.597Z,4.90
2022-10-05T04:35:25.500Z,4.50
2022-10-05T04:38:11.078Z,4.63
2022-10-05T04:40:38.182Z,4.05
2022-10-05T04:43:36.002Z,4.53
2022-10-05T04:46:29.183Z,4.85
2022-10-05T04:49:07.788Z,4.80
2022-10-05T04:51:51.310Z,4.53
2022-10-05T04:54:56.286Z,4.30
2022-10-05T04:57:29.318Z,4.38
2022-10-05T05:00:09.625Z,3.78
2022-10-05T05:02:56.414Z,4.20
2022-10-05T05:05:34.807Z,4.13
2022-10-05T05:08:04.591Z,4.40
2022-10-05T05:11:13.641Z,4.50
2022-10-05T05:14:00.695Z,5.00
2022-10-05T05:16:38.194Z,4.18
2022-10-05T05:19:16.171Z,4.57
2022-10-05T05:22:27.946Z,4.32
2022-10-05T05:25:22.055Z,5.13
2022-10-05T05:28:01.338Z,5.13
2022-10-05T05:30:47.972Z,4.53
2022-10-05T05:33:31.201Z,4.88
2022-10-05T05:36:22.190Z,5.47
2022-10-05T05:39:08.918Z,4.80
2022-10-05T05:41:39.343Z,5.07
2022-10-05T05:44:26.000Z,5.50
2022-10-05T05:47:16.835Z,5.30
2022-10-05T05:50:30.324Z,5.03
2022-10-05T05:53:22.778Z,4.55
2022-10-05T05:56:04.514Z,5.53
2022-10-05T05:58:35.814Z,5.57
2022-10-05T06:01:30.617Z,5.70
2022-10-05T06:04:02.769Z,5.22
2022-10-05T06:06:36.335Z,6.10
2022-10-05T06:09:16.730Z,5.28
2022-10-05T06:11:57.084Z,6.13
2022-10-05T06:14:45.415Z,6.20
2022-10-05T06:19:39.541Z,5.70
2022-10-05T06:22:17.320Z,5.65
2022-10-05T06:24:59.743Z,5.68
2022-10-05T06:27:38.808Z,5.80
2022-10-05T06:30:14.950Z,5.70
2022-10-05T06:33:12.390Z,6.45
2022-10-05T06:35:46.421Z,5.70
2022-10-05T06:38:34.987Z,5.78
2022-10-05T06:41:28.895Z,5.50
2022-10-05T06:44:01.107Z,5.70
2022-10-05T06:47:07.608Z,5.65
2022-10-05T06:50:09.117Z,5.60
2022-10-05T06:52:54.051Z,5.70
2022-10-05T06:55:30.786Z,5.53
2022-10-05T06:58:27.774Z,6.18
2022-10-05T07:01:06.443Z,6.13
2022-10-05T07:03:52.248Z,6.60
2022-10-05T07:06:37.445Z,6.20
2022-10-05T07:09:22.880Z,8.38
2022-10-05T07:12:03.763Z,14.02
2022-10-05T07:14:34.397Z,16.88
2022-10-05T07:17:12.553Z,12.35
2022-10-05T07:19:52.320Z,9.10
2022-10-05T07:22:41.512Z,6.63
2022-10-05T07:25:17.028Z,5.45
2022-10-05T07:28:11.417Z,5.32
2022-10-05T07:30:46.318Z,5.93
2022-10-05T07:33:21.932Z,6.32
2022-10-05T07:36:30.762Z,5.63
2022-10-05T07:39:12.603Z,5.75
2022-10-05T07:41:51.185Z,6.72
2022-10-05T07:44:29.658Z,6.85
2022-10-05T07:47:04.444Z,7.30
2022-10-05T07:50:03.284Z,6.90
2022-10-05T07:52:36.897Z,8.00
2022-10-05T07:55:27.360Z,8.18
2022-10-05T07:58:19.355Z,8.80
2022-10-05T08:00:56.623Z,7.13
2022-10-05T08:03:30.490Z,6.35
2022-10-05T08:05:58.588Z,4.90
2022-10-05T08:08:37.112Z,6.63
2022-10-05T08:11:38.488Z,5.80
2022-10-05T08:14:14.736Z,5.45
2022-10-05T08:16:42.251Z,7.50
2022-10-05T08:19:19.074Z,5.00
2022-10-05T08:21:52.573Z,6.20
2022-10-05T08:24:46.054Z,6.05
2022-10-05T08:29:58.543Z,4.97
2022-10-05T08:32:29.364Z,5.63
2022-10-05T08:35:13.841Z,6.03
2022-10-05T08:37:42.494Z,4.65
2022-10-05T08:40:33.795Z,5.38
2022-10-05T08:43:37.937Z,5.32
2022-10-05T08:46:31.136Z,4.15
2022-10-05T08:49:12.690Z,4.88
2022-10-05T08:51:42.173Z,4.63
2022-10-05T08:54:30.473Z,4.80
2022-10-05T08:57:22.215Z,4.70
2022-10-05T09:00:10.882Z,5.18
2022-10-05T09:02:56.066Z,4.68
2022-10-05T09:05:50.461Z,3.85
2022-10-05T09:08:29.760Z,4.38
2022-10-05T09:11:10.067Z,4.35
2022-10-05T09:13:47.044Z,4.03
2022-10-05T09:16:24.290Z,4.10
2022-10-05T09:19:32.885Z,4.30
2022-10-05T09:22:38.343Z,3.80
2022-10-05T09:25:32.585Z,3.38
2022-10-05T09:28:05.715Z,4.72
2022-10-05T09:30:52.874Z,3.50
2022-10-05T09:33:38.641Z,3.50
2022-10-05T09:36:16.278Z,4.00
2022-10-05T09:39:13.007Z,3.28
2022-10-05T09:42:13.428Z,3.63
2022-10-05T09:45:35.813Z,3.50
2022-10-05T09:48:22.086Z,3.65
2022-10-05T09:51:07.883Z,3.60
2022-10-05T09:54:12.225Z,3.28
2022-10-05T09:56:43.833Z,3.60
2022-10-05T09:59:42.173Z,3.33
2022-10-05T10:02:20.762Z,3.22
2022-10-05T10:05:16.777Z,3.13
2022-10-05T10:08:11.952Z,3.42
2022-10-05T10:11:00.454Z,3.10
2022-10-05T10:13:53.287Z,3.40
2022-10-05T10:16:41.429Z,3.30
2022-10-05T10:19:24.098Z,3.30
2022-10-05T10:22:09.398Z,3.20
2022-10-05T10:24:48.285Z,3.30
2022-10-05T10:27:42.291Z,3.22
2022-10-05T10:30:40.778Z,2.85
2022-10-05T10:33:25.666Z,3.42
2022-10-05T10:36:06.922Z,3.20
2022-10-05T10:38:40.547Z,2.97
2022-10-05T10:41:37.670Z,3.30
2022-10-05T10:44:22.614Z,2.25
2022-10-05T10:47:14.001Z,2.28
2022-10-05T10:50:19.437Z,2.60
2022-10-05T10:53:40.172Z,2.42
2022-10-05T10:56:34.169Z,2.33
2022-10-05T10:59:27.851Z,2.20
2022-10-05T11:02:37.548Z,2.35
2022-10-05T11:05:26.084Z,2.60
2022-10-05T11:08:22.885Z,2.53
2022-10-05T11:11:08.175Z,2.58
2022-10-05T11:13:37.603Z,2.25
2022-10-05T11:16:15.893Z,2.22
2022-10-05T11:19:16.572Z,2.33
2022-10-05T11:22:05.360Z,1.98
2022-10-05T11:24:54.805Z,2.10
2022-10-05T11:27:47.053Z,2.40
2022-10-05T11:31:02.002Z,1.95
2022-10-05T11:33:34.858Z,1.98
2022-10-05T11:36:18.807Z,1.75
2022-10-05T11:39:17.660Z,1.85
2022-10-05T11:42:05.775Z,1.92
2022-10-05T11:44:35.537Z,1.80
2022-10-05T11:47:10.711Z,1.90
2022-10-05T11:49:44.781Z,1.77
2022-10-05T11:52:21.524Z,1.98
2022-10-05T11:55:19.400Z,1.65
2022-10-05T11:57:53.359Z,2.10
2022-10-05T12:00:22.952Z,1.90
2022-10-05T12:02:58.549Z,2.10
2022-10-05T12:05:41.479Z,1.77
2022-10-05T12:08:26.087Z,1.90
2022-10-05T12:11:11.410Z,1.83
2022-10-05T12:13:41.067Z,2.05
2022-10-05T12:16:16.842Z,1.75
2022-10-05T12:18:52.488Z,1.67
2022-10-05T12:21:25.050Z,2.15
2022-10-05T12:24:26.886Z,1.98
2022-10-05T12:27:04.196Z,1.90
2022-10-05T12:29:39.343Z,1.80
2022-10-05T12:32:22.533Z,1.92
2022-10-05T12:35:36.247Z,1.70
2022-10-05T12:38:28.993Z,1.95
2022-10-05T12:41:05.785Z,2.05
2022-10-05T12:43:34.867Z,1.88
2022-10-05T12:46:09.094Z,1.52
2022-10-05T12:48:44.812Z,2.22
2022-10-05T12:51:25.177Z,1.55
2022-10-05T12:56:28.378Z,1.67
2022-10-05T13:01:41.840Z,1.70
2022-10-05T13:04:17.798Z,1.50
2022-10-05T13:07:19.836Z,2.05
2022-10-05T13:09:58.678Z,1.90
2022-10-05T13:12:42.842Z,2.00
2022-10-05T13:15:22.680Z,1.52
2022-10-05T13:18:10.372Z,1.50
2022-10-05T13:20:45.588Z,1.77
2022-10-05T13:23:36.434Z,1.52
2022-10-05T13:26:13.307Z,1.35
2022-10-05T13:29:00.375Z,1.10
2022-10-05T13:31:40.878Z,1.45
2022-10-05T13:34:22.911Z,1.10
2022-10-05T13:37:16.055Z,1.20
2022-10-05T13:42:45.793Z,1.20
2022-10-05T13:45:20.669Z,0.90
2022-10-05T13:47:59.693Z,0.77
2022-10-05T13:50:34.553Z,0.93
2022-10-05T13:53:18.303Z,1.00
2022-10-05T13:55:55.238Z,0.70
2022-10-05T13:58:25.401Z,1.50
2022-10-05T14:00:57.648Z,1.20
2022-10-05T14:03:25.104Z,0.90
2022-10-05T14:05:57.384Z,1.48
2022-10-05T14:08:35.151Z,1.60
2022-10-05T14:11:21.687Z,1.77
2022-10-05T14:13:49.045Z,1.75
2022-10-05T14:16:26.128Z,1.63
2022-10-05T14:19:04.783Z,1.88
2022-10-05T14:21:32.887Z,1.70
2022-10-05T14:24:32.251Z,1.98
2022-10-05T14:27:27.361Z,2.03
2022-10-05T14:30:17.704Z,1.83
2022-10-05T14:32:59.439Z,1.50
2022-10-05T14:35:31.264Z,1.67
2022-10-05T14:38:01.522Z,2.08
2022-10-05T14:40:30.972Z,1.75
2022-10-05T14:42:59.976Z,2.15
2022-10-05T14:45:29.937Z,2.15
2022-10-05T14:48:10.497Z,2.08
2022-10-05T14:50:55.970Z,1.75
2022-10-05T14:53:24.925Z,2.10
2022-10-05T14:56:08.886Z,1.83
2022-10-05T14:58:56.230Z,1.80
2022-10-05T15:01:31.470Z,1.80
2022-10-05T15:04:20.464Z,2.13
2022-10-05T15:06:51.135Z,1.95
2022-10-05T15:09:41.913Z,1.98
2022-10-05T15:12:08.929Z,2.08
2022-10-05T15:14:42.001Z,2.20
2022-10-05T15:17:34.670Z,2.05
2022-10-05T15:20:26.214Z,1.83
2022-10-05T15:23:26.248Z,1.80
2022-10-05T15:26:01.820Z,2.00
2022-10-05T15:28:34.596Z,2.05
2022-10-05T15:31:13.857Z,1.95
2022-10-05T15:33:53.598Z,2.10
2022-10-05T15:36:36.807Z,2.30
2022-10-05T15:39:34.640Z,1.83
2022-10-05T15:42:03.943Z,2.00
2022-10-05T15:44:52.171Z,2.08
2022-10-05T15:47:43.736Z,2.30
2022-10-05T15:50:18.856Z,2.25
2022-10-05T15:52:50.680Z,2.30
2022-10-05T15:55:30.059Z,2.35
2022-10-05T15:58:14.957Z,2.08
2022-10-05T16:00:57.886Z,2.13
2022-10-05T16:03:48.418Z,2.25
2022-10-05T16:06:55.551Z,1.83
2022-10-05T16:09:37.108Z,2.03
2022-10-05T16:12:19.034Z,2.35
2022-10-05T16:14:56.944Z,2.40
2022-10-05T16:17:36.616Z,2.38
2022-10-05T16:20:15.236Z,2.00
2022-10-05T16:23:01.967Z,2.50
2022-10-05T16:25:46.987Z,2.53
2022-10-05T16:28:16.632Z,2.33
2022-10-05T16:30:55.155Z,2.63
2022-10-05T16:33:30.188Z,2.50
2022-10-05T16:36:07.322Z,2.03
2022-10-05T16:38:41.410Z,2.50
2022-10-05T16:44:04.727Z,2.72
2022-10-05T16:46:45.961Z,2.42
2022-10-05T16:49:35.518Z,2.42
2022-10-05T16:52:06.553Z,2.42
2022-10-05T16:54:43.080Z,2.55
2022-10-05T16:57:18.219Z,2.95
2022-10-05T17:00:03.601Z,3.00
2022-10-05T17:02:54.361Z,2.75
2022-10-05T17:05:32.842Z,2.55
2022-10-05T17:08:15.419Z,2.80
2022-10-05T17:10:59.958Z,2.60
2022-10-05T17:13:50.446Z,2.33
2022-10-05T17:16:29.184Z,2.58
2022-10-05T17:19:12.756Z,2.53
2022-10-05T17:21:44.379Z,2.65
2022-10-05T17:24:36.850Z,2.55
2022-10-05T17:27:17.840Z,2.55
2022-10-05T17:29:49.813Z,1.98
2022-10-05T17:32:16.248Z,2.10
2022-10-05T17:35:01.130Z,2.22
2022-10-05T17:37:35.438Z,2.30
2022-10-05T17:40:31.275Z,1.90
2022-10-05T17:43:01.074Z,1.90
2022-10-05T17:45:33.534Z,1.63
2022-10-05T17:48:05.930Z,1.60
2022-10-05T17:51:07.467Z,1.60
2022-10-05T17:53:52.245Z,1.45
2022-10-05T17:56:20.199Z,1.35
2022-10-05T17:58:54.494Z,1.38
2022-10-05T18:01:34.356Z,1.55
2022-10-05T18:04:13.172Z,1.63
2022-10-05T18:06:47.976Z,1.55
2022-10-05T18:09:16.884Z,1.50
2022-10-05T18:11:45.152Z,1.40
2022-10-05T18:14:19.048Z,1.50
2022-10-05T18:17:03.511Z,1.48
2022-10-05T18:19:31.381Z,1.20
2022-10-05T18:22:27.625Z,1.45
2022-10-05T18:25:03.802Z,1.45
2022-10-05T18:27:34.190Z,1.60
2022-10-05T18:30:18.116Z,1.75
2022-10-05T18:33:04.289Z,1.42
2022-10-05T18:35:56.523Z,1.40
2022-10-05T18:38:51.195Z,1.50
2022-10-05T18:41:29.477Z,1.55
2022-10-05T18:44:14.262Z,1.55
2022-10-05T18:47:01.867Z,1.42
2022-10-05T18:49:47.248Z,1.73
2022-10-05T18:52:39.067Z,1.50
2022-10-05T18:55:17.432Z,1.50
2022-10-05T18:58:13.373Z,1.45
2022-10-05T19:00:58.418Z,2.08
2022-10-05T19:03:40.455Z,1.90
2022-10-05T19:06:25.563Z,1.95
2022-10-05T19:09:08.586Z,1.60
2022-10-05T19:11:52.451Z,1.50
2022-10-05T19:14:36.856Z,1.50
2022-10-05T19:17:03.754Z,1.55
2022-10-05T19:19:43.782Z,1.75
2022-10-05T19:22:28.588Z,1.80
2022-10-05T19:25:02.181Z,1.85
2022-10-05T19:27:34.564Z,1.50
2022-10-05T19:30:14.610Z,1.90
2022-10-05T19:33:08.846Z,1.52
2022-10-05T19:35:42.301Z,1.75
2022-10-05T19:38:23.723Z,2.10
2022-10-05T19:41:13.488Z,1.90
2022-10-05T19:44:04.540Z,1.90
2022-10-05T19:47:10.638Z,1.90
2022-10-05T19:52:49.004Z,1.90
2022-10-05T19:55:26.310Z,1.98
2022-10-05T19:58:01.186Z,1.90
2022-10-05T20:00:31.474Z,1.90
2022-10-05T20:03:19.686Z,2.10
2022-10-05T20:05:47.479Z,1.75
2022-10-05T20:08:19.487Z,1.80
2022-10-05T20:11:13.307Z,1.90
2022-10-05T20:16:45.374Z,2.00
2022-10-05T20:19:47.391Z,2.13
2022-10-05T20:22:33.443Z,1.90
2022-10-05T20:25:06.224Z,1.90
2022-10-05T20:27:46.455Z,2.55
2022-10-05T20:30:18.413Z,1.80
2022-10-05T20:32:52.740Z,1.88
2022-10-05T20:35:22.349Z,1.70
2022-10-05T20:37:49.959Z,2.22
2022-10-05T20:40:18.668Z,1.70
2022-10-05T20:42:45.437Z,1.80
2022-10-05T20:45:13.162Z,1.95
2022-10-05T20:47:40.397Z,2.03
2022-10-05T20:50:09.074Z,2.47
2022-10-05T20:52:37.372Z,2.25
2022-10-05T20:55:05.291Z,2.50
2022-10-05T20:57:32.421Z,3.17
2022-10-05T20:59:58.913Z,3.30
2022-10-05T21:02:25.445Z,3.63
2022-10-05T21:04:52.380Z,3.08
2022-10-05T21:07:23.248Z,3.28
2022-10-05T21:09:50.967Z,2.90
2022-10-05T21:12:17.483Z,3.22
2022-10-05T21:14:44.044Z,2.63
2022-10-05T21:17:11.968Z,2.50
2022-10-05T21:19:39.342Z,2.42
2022-10-05T21:22:07.469Z,2.30
2022-10-05T21:24:35.857Z,2.47
2022-10-05T21:27:02.787Z,2.20
2022-10-05T21:29:29.805Z,2.30
2022-10-05T21:31:56.642Z,2.00
2022-10-05T21:34:23.696Z,2.20
2022-10-05T21:36:50.247Z,2.25
2022-10-05T21:39:17.014Z,1.95
2022-10-05T21:41:43.483Z,2.13
2022-10-05T21:44:10.110Z,2.00
2022-10-05T21:46:37.643Z,2.13
2022-10-05T21:49:06.379Z,2.25
2022-10-05T21:51:33.951Z,2.10
2022-10-05T21:54:03.649Z,2.00
2022-10-05T21:56:40.769Z,2.20
2022-10-05T21:59:09.497Z,2.00
2022-10-05T22:01:36.608Z,2.15
2022-10-05T22:04:04.119Z,2.42
2022-10-05T22:06:31.270Z,2.35
2022-10-05T22:08:59.477Z,2.10
2022-10-05T22:11:26.445Z,2.10
2022-10-05T22:13:53.241Z,2.50
2022-10-05T22:16:21.881Z,2.03
2022-10-05T22:18:48.919Z,2.20
2022-10-05T22:21:15.961Z,2.33
2022-10-05T22:23:44.995Z,2.60
2022-10-05T22:26:13.931Z,2.40
2022-10-05T22:28:42.332Z,2.55
2022-10-05T22:31:09.569Z,2.50
2022-10-05T22:33:37.112Z,2.10
2022-10-05T22:36:04.661Z,2.25
2022-10-05T22:38:31.591Z,2.60
2022-10-05T22:40:58.480Z,2.05
2022-10-05T22:43:26.978Z,2.38
2022-10-05T22:45:54.258Z,2.15
2022-10-05T22:48:20.895Z,2.50
2022-10-05T22:50:47.481Z,4.47
2022-10-05T22:53:14.257Z,1.95
2022-10-05T22:55:40.959Z,2.47
2022-10-05T22:58:07.649Z,2.97
2022-10-05T23:00:56.556Z,2.50
2022-10-05T23:03:21.305Z,2.33
2022-10-05T23:05:47.828Z,2.15
2022-10-05T23:08:14.448Z,2.63
2022-10-05T23:10:40.980Z,2.35
2022-10-05T23:13:08.670Z,2.40
2022-10-05T23:15:35.788Z,2.33
2022-10-05T23:18:02.362Z,2.05
2022-10-05T23:20:29.075Z,2.60
2022-10-05T23:22:55.747Z,2.33
2022-10-05T23:25:22.353Z,2.22
2022-10-05T23:27:49.226Z,2.15
2022-10-05T23:30:15.721Z,2.13
2022-10-05T23:32:43.658Z,2.70
2022-10-05T23:35:12.257Z,2.42
2022-10-05T23:37:43.611Z,2.70
2022-10-05T23:40:14.109Z,2.35
2022-10-05T23:42:41.114Z,2.38
2022-10-05T23:45:11.443Z,2.00
2022-10-05T23:47:38.936Z,2.22
2022-10-05T23:50:06.948Z,2.50
2022-10-05T23:52:34.495Z,2.58
2022-10-05T23:55:02.173Z,2.20
2022-10-05T23:57:28.746Z,2.47
2022-10-05T23:59:56.304Z,2.42
